sensor_id;sensor_type;location;lat;lon;timestamp;P1;durP1;ratioP1;P2;durP2;ratioP2
19816;SDS011;68323;49.394;8.434;2023-04-24T00:01:27;3.80;;;2.17;;
19816;SDS011;68323;49.394;8.434;2023-04-24T00:03:54;3.27;;;1.90;;
19816;SDS011;68323;49.394;8.434;2023-04-24T00:06:21;3.53;;;1.63;;
19816;SDS011;68323;49.394;8.434;2023-04-24T00:08:48;3.43;;;1.80;;
19816;SDS011;68323;49.394;8.434;2023-04-24T00:11:14;3.13;;;1.90;;
19816;SDS011;68323;49.394;8.434;2023-04-24T00:13:39;5.37;;;2.37;;
19816;SDS011;68323;49.394;8.434;2023-04-24T00:16:05;4.17;;;1.83;;
19816;SDS011;68323;49.394;8.434;2023-04-24T00:18:30;5.53;;;2.20;;
19816;SDS011;68323;49.394;8.434;2023-04-24T00:20:56;2.60;;;2.00;;
19816;SDS011;68323;49.394;8.434;2023-04-24T00:23:22;3.40;;;1.80;;
19816;SDS011;68323;49.394;8.434;2023-04-24T00:25:47;5.33;;;2.30;;
19816;SDS011;68323;49.394;8.434;2023-04-24T00:28:13;2.93;;;2.00;;
19816;SDS011;68323;49.394;8.434;2023-04-24T00:30:38;4.90;;;2.27;;
19816;SDS011;68323;49.394;8.434;2023-04-24T00:33:04;2.87;;;1.90;;
19816;SDS011;68323;49.394;8.434;2023-04-24T00:35:30;2.80;;;1.93;;
19816;SDS011;68323;49.394;8.434;2023-04-24T00:37:56;4.40;;;2.10;;
19816;SDS011;68323;49.394;8.434;2023-04-24T00:40:21;3.77;;;2.03;;
19816;SDS011;68323;49.394;8.434;2023-04-24T00:42:47;3.07;;;1.73;;
19816;SDS011;68323;49.394;8.434;2023-04-24T00:45:13;3.57;;;2.00;;
19816;SDS011;68323;49.394;8.434;2023-04-24T00:47:39;4.30;;;2.20;;
19816;SDS011;68323;49.394;8.434;2023-04-24T00:50:05;5.53;;;2.07;;
19816;SDS011;68323;49.394;8.434;2023-04-24T00:52:32;3.20;;;2.00;;
19816;SDS011;68323;49.394;8.434;2023-04-24T00:54:57;3.50;;;1.80;;
19816;SDS011;68323;49.394;8.434;2023-04-24T00:57:23;3.37;;;1.87;;
19816;SDS011;68323;49.394;8.434;2023-04-24T00:59:50;4.37;;;1.93;;
19816;SDS011;68323;49.394;8.434;2023-04-24T01:02:16;2.73;;;1.83;;
19816;SDS011;68323;49.394;8.434;2023-04-24T01:04:42;3.70;;;2.10;;
19816;SDS011;68323;49.394;8.434;2023-04-24T01:07:08;3.93;;;2.07;;
19816;SDS011;68323;49.394;8.434;2023-04-24T01:09:36;5.63;;;2.27;;
19816;SDS011;68323;49.394;8.434;2023-04-24T01:12:04;6.87;;;2.20;;
19816;SDS011;68323;49.394;8.434;2023-04-24T01:14:30;4.87;;;2.20;;
19816;SDS011;68323;49.394;8.434;2023-04-24T01:16:56;3.43;;;2.00;;
19816;SDS011;68323;49.394;8.434;2023-04-24T01:19:22;3.83;;;1.90;;
19816;SDS011;68323;49.394;8.434;2023-04-24T01:21:48;4.23;;;2.10;;
19816;SDS011;68323;49.394;8.434;2023-04-24T01:24:18;3.27;;;1.60;;
19816;SDS011;68323;49.394;8.434;2023-04-24T01:26:44;4.13;;;1.80;;
19816;SDS011;68323;49.394;8.434;2023-04-24T01:29:11;3.83;;;2.00;;
19816;SDS011;68323;49.394;8.434;2023-04-24T01:31:37;4.83;;;1.90;;
19816;SDS011;68323;49.394;8.434;2023-04-24T01:34:04;3.40;;;1.80;;
19816;SDS011;68323;49.394;8.434;2023-04-24T01:36:30;4.20;;;2.00;;
19816;SDS011;68323;49.394;8.434;2023-04-24T01:38:57;5.27;;;2.13;;
19816;SDS011;68323;49.394;8.434;2023-04-24T01:41:23;3.67;;;2.00;;
19816;SDS011;68323;49.394;8.434;2023-04-24T01:43:49;3.27;;;1.70;;
19816;SDS011;68323;49.394;8.434;2023-04-24T01:46:16;2.47;;;1.60;;
19816;SDS011;68323;49.394;8.434;2023-04-24T01:48:41;4.63;;;2.07;;
19816;SDS011;68323;49.394;8.434;2023-04-24T01:51:07;3.07;;;1.87;;
19816;SDS011;68323;49.394;8.434;2023-04-24T01:53:32;4.90;;;2.00;;
19816;SDS011;68323;49.394;8.434;2023-04-24T01:55:58;3.03;;;1.50;;
19816;SDS011;68323;49.394;8.434;2023-04-24T01:58:24;4.13;;;2.00;;
19816;SDS011;68323;49.394;8.434;2023-04-24T02:00:49;4.07;;;1.80;;
19816;SDS011;68323;49.394;8.434;2023-04-24T02:03:15;4.87;;;1.90;;
19816;SDS011;68323;49.394;8.434;2023-04-24T02:05:43;2.97;;;1.50;;
19816;SDS011;68323;49.394;8.434;2023-04-24T02:08:10;4.83;;;1.90;;
19816;SDS011;68323;49.394;8.434;2023-04-24T02:10:35;7.13;;;1.60;;
19816;SDS011;68323;49.394;8.434;2023-04-24T02:13:01;4.07;;;1.63;;
19816;SDS011;68323;49.394;8.434;2023-04-24T02:15:27;3.20;;;1.53;;
19816;SDS011;68323;49.394;8.434;2023-04-24T02:17:53;4.47;;;1.87;;
19816;SDS011;68323;49.394;8.434;2023-04-24T02:20:18;2.10;;;1.43;;
19816;SDS011;68323;49.394;8.434;2023-04-24T02:22:44;2.73;;;1.50;;
19816;SDS011;68323;49.394;8.434;2023-04-24T02:25:09;2.80;;;1.50;;
19816;SDS011;68323;49.394;8.434;2023-04-24T02:27:35;3.20;;;1.53;;
19816;SDS011;68323;49.394;8.434;2023-04-24T02:30:01;6.17;;;1.50;;
19816;SDS011;68323;49.394;8.434;2023-04-24T02:32:27;3.50;;;1.50;;
19816;SDS011;68323;49.394;8.434;2023-04-24T02:34:53;3.90;;;1.60;;
19816;SDS011;68323;49.394;8.434;2023-04-24T02:37:19;4.20;;;1.40;;
19816;SDS011;68323;49.394;8.434;2023-04-24T02:39:44;3.87;;;1.43;;
19816;SDS011;68323;49.394;8.434;2023-04-24T02:42:10;3.13;;;1.43;;
19816;SDS011;68323;49.394;8.434;2023-04-24T02:44:35;3.40;;;1.43;;
19816;SDS011;68323;49.394;8.434;2023-04-24T02:47:01;3.13;;;1.30;;
19816;SDS011;68323;49.394;8.434;2023-04-24T02:49:26;8.20;;;1.83;;
19816;SDS011;68323;49.394;8.434;2023-04-24T02:51:52;10.73;;;2.60;;
19816;SDS011;68323;49.394;8.434;2023-04-24T02:54:18;12.80;;;2.90;;
19816;SDS011;68323;49.394;8.434;2023-04-24T02:56:43;7.53;;;2.33;;
19816;SDS011;68323;49.394;8.434;2023-04-24T02:59:09;4.67;;;2.00;;
19816;SDS011;68323;49.394;8.434;2023-04-24T03:01:35;4.03;;;1.90;;
19816;SDS011;68323;49.394;8.434;2023-04-24T03:04:01;6.73;;;2.27;;
19816;SDS011;68323;49.394;8.434;2023-04-24T03:06:27;3.27;;;2.40;;
19816;SDS011;68323;49.394;8.434;2023-04-24T03:08:53;6.77;;;2.57;;
19816;SDS011;68323;49.394;8.434;2023-04-24T03:11:19;6.50;;;2.10;;
19816;SDS011;68323;49.394;8.434;2023-04-24T03:13:45;4.00;;;2.00;;
19816;SDS011;68323;49.394;8.434;2023-04-24T03:16:10;3.30;;;2.10;;
19816;SDS011;68323;49.394;8.434;2023-04-24T03:18:36;3.80;;;2.07;;
19816;SDS011;68323;49.394;8.434;2023-04-24T03:21:01;2.80;;;2.03;;
19816;SDS011;68323;49.394;8.434;2023-04-24T03:23:28;7.23;;;2.13;;
19816;SDS011;68323;49.394;8.434;2023-04-24T03:25:53;5.40;;;2.30;;
19816;SDS011;68323;49.394;8.434;2023-04-24T03:28:20;2.23;;;1.63;;
19816;SDS011;68323;49.394;8.434;2023-04-24T03:30:45;3.07;;;1.80;;
19816;SDS011;68323;49.394;8.434;2023-04-24T03:33:11;3.33;;;1.83;;
19816;SDS011;68323;49.394;8.434;2023-04-24T03:35:36;2.33;;;1.57;;
19816;SDS011;68323;49.394;8.434;2023-04-24T03:38:02;4.10;;;1.70;;
19816;SDS011;68323;49.394;8.434;2023-04-24T03:40:29;4.20;;;2.10;;
19816;SDS011;68323;49.394;8.434;2023-04-24T03:42:55;4.03;;;1.93;;
19816;SDS011;68323;49.394;8.434;2023-04-24T03:45:20;3.70;;;2.30;;
19816;SDS011;68323;49.394;8.434;2023-04-24T03:47:46;3.23;;;2.30;;
19816;SDS011;68323;49.394;8.434;2023-04-24T03:50:12;4.97;;;2.20;;
19816;SDS011;68323;49.394;8.434;2023-04-24T03:52:37;6.40;;;2.40;;
19816;SDS011;68323;49.394;8.434;2023-04-24T03:55:03;3.90;;;1.97;;
19816;SDS011;68323;49.394;8.434;2023-04-24T03:57:29;3.23;;;2.13;;
19816;SDS011;68323;49.394;8.434;2023-04-24T03:59:54;4.30;;;2.13;;
19816;SDS011;68323;49.394;8.434;2023-04-24T04:02:20;2.73;;;2.17;;
19816;SDS011;68323;49.394;8.434;2023-04-24T04:04:45;3.57;;;2.30;;
19816;SDS011;68323;49.394;8.434;2023-04-24T04:07:11;2.87;;;2.33;;
19816;SDS011;68323;49.394;8.434;2023-04-24T04:09:37;5.40;;;2.60;;
19816;SDS011;68323;49.394;8.434;2023-04-24T04:12:03;3.47;;;2.10;;
19816;SDS011;68323;49.394;8.434;2023-04-24T04:14:28;4.03;;;2.57;;
19816;SDS011;68323;49.394;8.434;2023-04-24T04:16:54;3.50;;;2.50;;
19816;SDS011;68323;49.394;8.434;2023-04-24T04:19:20;4.00;;;2.40;;
19816;SDS011;68323;49.394;8.434;2023-04-24T04:21:45;3.87;;;2.70;;
19816;SDS011;68323;49.394;8.434;2023-04-24T04:24:11;5.03;;;2.90;;
19816;SDS011;68323;49.394;8.434;2023-04-24T04:26:37;3.00;;;2.40;;
19816;SDS011;68323;49.394;8.434;2023-04-24T04:29:02;6.00;;;2.80;;
19816;SDS011;68323;49.394;8.434;2023-04-24T04:31:28;5.27;;;2.80;;
19816;SDS011;68323;49.394;8.434;2023-04-24T04:33:55;2.93;;;2.63;;
19816;SDS011;68323;49.394;8.434;2023-04-24T04:36:20;3.17;;;2.60;;
19816;SDS011;68323;49.394;8.434;2023-04-24T04:38:46;4.30;;;3.33;;
19816;SDS011;68323;49.394;8.434;2023-04-24T04:41:11;4.13;;;3.30;;
19816;SDS011;68323;49.394;8.434;2023-04-24T04:43:37;3.10;;;2.80;;
19816;SDS011;68323;49.394;8.434;2023-04-24T04:46:04;4.43;;;3.17;;
19816;SDS011;68323;49.394;8.434;2023-04-24T04:48:30;4.87;;;2.70;;
19816;SDS011;68323;49.394;8.434;2023-04-24T04:50:56;5.03;;;3.17;;
19816;SDS011;68323;49.394;8.434;2023-04-24T04:53:22;5.90;;;2.80;;
19816;SDS011;68323;49.394;8.434;2023-04-24T04:55:48;4.10;;;2.70;;
19816;SDS011;68323;49.394;8.434;2023-04-24T04:58:13;7.03;;;3.90;;
19816;SDS011;68323;49.394;8.434;2023-04-24T05:00:39;7.10;;;4.57;;
19816;SDS011;68323;49.394;8.434;2023-04-24T05:03:04;6.13;;;4.40;;
19816;SDS011;68323;49.394;8.434;2023-04-24T05:05:30;4.10;;;3.03;;
19816;SDS011;68323;49.394;8.434;2023-04-24T05:07:55;4.00;;;2.50;;
19816;SDS011;68323;49.394;8.434;2023-04-24T05:10:21;3.60;;;2.70;;
19816;SDS011;68323;49.394;8.434;2023-04-24T05:12:46;4.20;;;2.90;;
19816;SDS011;68323;49.394;8.434;2023-04-24T05:15:12;4.27;;;3.00;;
19816;SDS011;68323;49.394;8.434;2023-04-24T05:17:38;4.80;;;3.00;;
19816;SDS011;68323;49.394;8.434;2023-04-24T05:20:05;5.93;;;3.00;;
19816;SDS011;68323;49.394;8.434;2023-04-24T05:22:31;5.77;;;3.30;;
19816;SDS011;68323;49.394;8.434;2023-04-24T05:24:57;4.90;;;3.20;;
19816;SDS011;68323;49.394;8.434;2023-04-24T05:27:22;5.23;;;2.90;;
19816;SDS011;68323;49.394;8.434;2023-04-24T05:29:49;4.63;;;3.20;;
19816;SDS011;68323;49.394;8.434;2023-04-24T05:32:14;4.70;;;3.87;;
19816;SDS011;68323;49.394;8.434;2023-04-24T05:34:40;10.70;;;7.37;;
19816;SDS011;68323;49.394;8.434;2023-04-24T05:37:05;5.77;;;4.10;;
19816;SDS011;68323;49.394;8.434;2023-04-24T05:39:33;6.27;;;4.40;;
19816;SDS011;68323;49.394;8.434;2023-04-24T05:42:00;5.30;;;3.50;;
19816;SDS011;68323;49.394;8.434;2023-04-24T05:44:26;5.93;;;3.70;;
19816;SDS011;68323;49.394;8.434;2023-04-24T05:46:51;4.40;;;2.60;;
19816;SDS011;68323;49.394;8.434;2023-04-24T05:49:17;3.00;;;2.10;;
19816;SDS011;68323;49.394;8.434;2023-04-24T05:51:43;4.50;;;2.40;;
19816;SDS011;68323;49.394;8.434;2023-04-24T05:54:08;4.53;;;2.57;;
19816;SDS011;68323;49.394;8.434;2023-04-24T05:56:35;8.03;;;3.10;;
19816;SDS011;68323;49.394;8.434;2023-04-24T05:59:01;5.13;;;2.80;;
19816;SDS011;68323;49.394;8.434;2023-04-24T06:01:26;5.23;;;2.60;;
19816;SDS011;68323;49.394;8.434;2023-04-24T06:03:52;4.40;;;2.60;;
19816;SDS011;68323;49.394;8.434;2023-04-24T06:06:18;4.77;;;3.00;;
19816;SDS011;68323;49.394;8.434;2023-04-24T06:08:44;4.40;;;2.80;;
19816;SDS011;68323;49.394;8.434;2023-04-24T06:11:10;3.63;;;2.80;;
19816;SDS011;68323;49.394;8.434;2023-04-24T06:13:35;5.20;;;3.03;;
19816;SDS011;68323;49.394;8.434;2023-04-24T06:16:01;5.03;;;3.30;;
19816;SDS011;68323;49.394;8.434;2023-04-24T06:18:27;4.60;;;3.30;;
19816;SDS011;68323;49.394;8.434;2023-04-24T06:20:52;6.23;;;3.63;;
19816;SDS011;68323;49.394;8.434;2023-04-24T06:23:18;4.47;;;3.70;;
19816;SDS011;68323;49.394;8.434;2023-04-24T06:25:43;5.97;;;3.90;;
19816;SDS011;68323;49.394;8.434;2023-04-24T06:28:09;5.57;;;4.20;;
19816;SDS011;68323;49.394;8.434;2023-04-24T06:30:34;12.33;;;6.90;;
19816;SDS011;68323;49.394;8.434;2023-04-24T06:33:00;6.67;;;3.77;;
19816;SDS011;68323;49.394;8.434;2023-04-24T06:35:25;6.40;;;3.73;;
19816;SDS011;68323;49.394;8.434;2023-04-24T06:37:51;5.57;;;3.93;;
19816;SDS011;68323;49.394;8.434;2023-04-24T06:40:16;4.67;;;2.77;;
19816;SDS011;68323;49.394;8.434;2023-04-24T06:42:43;3.83;;;2.10;;
19816;SDS011;68323;49.394;8.434;2023-04-24T06:45:09;2.97;;;1.70;;
19816;SDS011;68323;49.394;8.434;2023-04-24T06:47:35;2.00;;;1.80;;
19816;SDS011;68323;49.394;8.434;2023-04-24T06:50:01;3.50;;;2.00;;
19816;SDS011;68323;49.394;8.434;2023-04-24T06:52:26;3.57;;;1.83;;
19816;SDS011;68323;49.394;8.434;2023-04-24T06:54:52;2.90;;;1.50;;
19816;SDS011;68323;49.394;8.434;2023-04-24T06:57:17;2.50;;;1.50;;
19816;SDS011;68323;49.394;8.434;2023-04-24T06:59:44;1.40;;;1.10;;
19816;SDS011;68323;49.394;8.434;2023-04-24T07:02:10;4.30;;;1.27;;
19816;SDS011;68323;49.394;8.434;2023-04-24T07:04:35;2.30;;;1.00;;
19816;SDS011;68323;49.394;8.434;2023-04-24T07:07:01;1.40;;;0.90;;
19816;SDS011;68323;49.394;8.434;2023-04-24T07:09:27;1.57;;;1.00;;
19816;SDS011;68323;49.394;8.434;2023-04-24T07:11:53;2.03;;;1.30;;
19816;SDS011;68323;49.394;8.434;2023-04-24T07:14:19;1.13;;;1.00;;
19816;SDS011;68323;49.394;8.434;2023-04-24T07:16:45;2.60;;;1.40;;
19816;SDS011;68323;49.394;8.434;2023-04-24T07:19:11;3.17;;;1.30;;
19816;SDS011;68323;49.394;8.434;2023-04-24T07:21:38;1.87;;;1.23;;
19816;SDS011;68323;49.394;8.434;2023-04-24T07:24:03;2.53;;;1.33;;
19816;SDS011;68323;49.394;8.434;2023-04-24T07:26:29;2.97;;;1.50;;
19816;SDS011;68323;49.394;8.434;2023-04-24T07:28:55;1.47;;;1.30;;
19816;SDS011;68323;49.394;8.434;2023-04-24T07:31:21;2.13;;;1.33;;
19816;SDS011;68323;49.394;8.434;2023-04-24T07:33:46;1.47;;;1.30;;
19816;SDS011;68323;49.394;8.434;2023-04-24T07:36:12;3.67;;;1.40;;
19816;SDS011;68323;49.394;8.434;2023-04-24T07:38:42;2.77;;;1.30;;
19816;SDS011;68323;49.394;8.434;2023-04-24T07:41:07;4.47;;;1.40;;
19816;SDS011;68323;49.394;8.434;2023-04-24T07:43:33;1.90;;;1.13;;
19816;SDS011;68323;49.394;8.434;2023-04-24T07:45:59;1.20;;;1.10;;
19816;SDS011;68323;49.394;8.434;2023-04-24T07:48:25;2.63;;;1.20;;
19816;SDS011;68323;49.394;8.434;2023-04-24T07:50:51;3.27;;;1.47;;
19816;SDS011;68323;49.394;8.434;2023-04-24T07:53:17;1.50;;;1.10;;
19816;SDS011;68323;49.394;8.434;2023-04-24T07:55:42;5.05;;;1.52;;
19816;SDS011;68323;49.394;8.434;2023-04-24T07:58:08;1.95;;;1.00;;
19816;SDS011;68323;49.394;8.434;2023-04-24T08:00:33;1.42;;;1.02;;
19816;SDS011;68323;49.394;8.434;2023-04-24T08:02:59;2.50;;;1.00;;
19816;SDS011;68323;49.394;8.434;2023-04-24T08:05:25;1.85;;;1.05;;
19816;SDS011;68323;49.394;8.434;2023-04-24T08:07:52;2.45;;;1.10;;
19816;SDS011;68323;49.394;8.434;2023-04-24T08:10:17;2.42;;;1.10;;
19816;SDS011;68323;49.394;8.434;2023-04-24T08:12:43;1.63;;;1.10;;
19816;SDS011;68323;49.394;8.434;2023-04-24T08:15:09;2.55;;;1.10;;
19816;SDS011;68323;49.394;8.434;2023-04-24T08:17:34;3.85;;;1.20;;
19816;SDS011;68323;49.394;8.434;2023-04-24T08:20:00;3.15;;;1.30;;
19816;SDS011;68323;49.394;8.434;2023-04-24T08:22:27;3.28;;;1.55;;
19816;SDS011;68323;49.394;8.434;2023-04-24T08:24:53;2.53;;;1.60;;
19816;SDS011;68323;49.394;8.434;2023-04-24T08:27:19;2.47;;;1.60;;
19816;SDS011;68323;49.394;8.434;2023-04-24T08:29:45;2.47;;;1.50;;
19816;SDS011;68323;49.394;8.434;2023-04-24T08:32:10;2.67;;;1.40;;
19816;SDS011;68323;49.394;8.434;2023-04-24T08:34:36;2.13;;;1.90;;
19816;SDS011;68323;49.394;8.434;2023-04-24T08:37:02;2.73;;;2.33;;
19816;SDS011;68323;49.394;8.434;2023-04-24T08:39:28;2.40;;;1.77;;
19816;SDS011;68323;49.394;8.434;2023-04-24T08:41:54;3.60;;;1.88;;
19816;SDS011;68323;49.394;8.434;2023-04-24T08:44:20;3.38;;;1.75;;
19816;SDS011;68323;49.394;8.434;2023-04-24T08:46:47;5.15;;;1.73;;
19816;SDS011;68323;49.394;8.434;2023-04-24T08:49:13;2.47;;;1.63;;
19816;SDS011;68323;49.394;8.434;2023-04-24T08:51:41;4.05;;;2.50;;
19816;SDS011;68323;49.394;8.434;2023-04-24T08:54:07;2.63;;;1.73;;
19816;SDS011;68323;49.394;8.434;2023-04-24T08:56:33;4.78;;;3.40;;
19816;SDS011;68323;49.394;8.434;2023-04-24T08:58:59;4.43;;;2.30;;
19816;SDS011;68323;49.394;8.434;2023-04-24T09:01:25;4.43;;;2.40;;
19816;SDS011;68323;49.394;8.434;2023-04-24T09:03:51;3.27;;;2.10;;
19816;SDS011;68323;49.394;8.434;2023-04-24T09:06:19;5.30;;;2.50;;
19816;SDS011;68323;49.394;8.434;2023-04-24T09:08:46;2.60;;;2.40;;
19816;SDS011;68323;49.394;8.434;2023-04-24T09:11:13;4.00;;;1.80;;
19816;SDS011;68323;49.394;8.434;2023-04-24T09:13:39;3.23;;;2.00;;
19816;SDS011;68323;49.394;8.434;2023-04-24T09:16:06;3.83;;;2.23;;
19816;SDS011;68323;49.394;8.434;2023-04-24T09:18:31;5.97;;;2.00;;
19816;SDS011;68323;49.394;8.434;2023-04-24T09:21:02;2.37;;;1.57;;
19816;SDS011;68323;49.394;8.434;2023-04-24T09:23:31;2.47;;;1.83;;
19816;SDS011;68323;49.394;8.434;2023-04-24T09:25:58;2.83;;;1.80;;
19816;SDS011;68323;49.394;8.434;2023-04-24T09:28:26;2.87;;;1.90;;
19816;SDS011;68323;49.394;8.434;2023-04-24T09:31:13;3.03;;;1.90;;
19816;SDS011;68323;49.394;8.434;2023-04-24T09:34:04;2.60;;;1.70;;
19816;SDS011;68323;49.394;8.434;2023-04-24T09:36:32;3.03;;;1.93;;
19816;SDS011;68323;49.394;8.434;2023-04-24T09:39:03;2.97;;;1.50;;
19816;SDS011;68323;49.394;8.434;2023-04-24T09:41:31;2.53;;;1.60;;
19816;SDS011;68323;49.394;8.434;2023-04-24T09:43:58;2.00;;;1.60;;
19816;SDS011;68323;49.394;8.434;2023-04-24T09:46:38;3.00;;;1.80;;
19816;SDS011;68323;49.394;8.434;2023-04-24T09:49:07;2.70;;;1.90;;
19816;SDS011;68323;49.394;8.434;2023-04-24T09:51:36;4.72;;;1.75;;
19816;SDS011;68323;49.394;8.434;2023-04-24T09:54:03;3.53;;;2.30;;
19816;SDS011;68323;49.394;8.434;2023-04-24T09:56:35;3.00;;;1.80;;
19816;SDS011;68323;49.394;8.434;2023-04-24T09:59:07;3.00;;;2.17;;
19816;SDS011;68323;49.394;8.434;2023-04-24T10:01:33;4.03;;;2.20;;
19816;SDS011;68323;49.394;8.434;2023-04-24T10:03:59;3.23;;;1.90;;
19816;SDS011;68323;49.394;8.434;2023-04-24T10:06:33;3.87;;;2.20;;
19816;SDS011;68323;49.394;8.434;2023-04-24T10:09:00;2.60;;;1.93;;
19816;SDS011;68323;49.394;8.434;2023-04-24T10:11:29;4.43;;;1.97;;
19816;SDS011;68323;49.394;8.434;2023-04-24T10:13:55;2.27;;;1.93;;
19816;SDS011;68323;49.394;8.434;2023-04-24T10:16:22;1.77;;;1.20;;
19816;SDS011;68323;49.394;8.434;2023-04-24T10:18:48;2.57;;;1.40;;
19816;SDS011;68323;49.394;8.434;2023-04-24T10:21:17;2.10;;;1.30;;
19816;SDS011;68323;49.394;8.434;2023-04-24T10:23:42;2.50;;;1.53;;
19816;SDS011;68323;49.394;8.434;2023-04-24T10:26:12;4.40;;;1.70;;
19816;SDS011;68323;49.394;8.434;2023-04-24T10:28:43;2.73;;;1.70;;
19816;SDS011;68323;49.394;8.434;2023-04-24T10:31:12;3.00;;;1.90;;
19816;SDS011;68323;49.394;8.434;2023-04-24T10:33:42;1.60;;;1.40;;
19816;SDS011;68323;49.394;8.434;2023-04-24T10:36:11;1.73;;;1.53;;
19816;SDS011;68323;49.394;8.434;2023-04-24T10:38:39;3.17;;;1.60;;
19816;SDS011;68323;49.394;8.434;2023-04-24T10:41:10;2.13;;;1.50;;
19816;SDS011;68323;49.394;8.434;2023-04-24T10:43:41;1.50;;;1.30;;
19816;SDS011;68323;49.394;8.434;2023-04-24T10:46:11;2.40;;;1.67;;
19816;SDS011;68323;49.394;8.434;2023-04-24T10:48:44;2.13;;;1.37;;
19816;SDS011;68323;49.394;8.434;2023-04-24T10:51:21;2.43;;;1.87;;
19816;SDS011;68323;49.394;8.434;2023-04-24T10:53:47;2.90;;;2.13;;
19816;SDS011;68323;49.394;8.434;2023-04-24T10:56:15;4.33;;;1.87;;
19816;SDS011;68323;49.394;8.434;2023-04-24T10:58:51;3.57;;;2.20;;
19816;SDS011;68323;49.394;8.434;2023-04-24T11:01:26;2.10;;;1.90;;
19816;SDS011;68323;49.394;8.434;2023-04-24T11:03:58;3.33;;;2.10;;
19816;SDS011;68323;49.394;8.434;2023-04-24T11:06:31;5.13;;;2.60;;
19816;SDS011;68323;49.394;8.434;2023-04-24T11:09:10;3.20;;;2.50;;
19816;SDS011;68323;49.394;8.434;2023-04-24T11:11:44;3.20;;;2.30;;
19816;SDS011;68323;49.394;8.434;2023-04-24T11:14:10;3.47;;;2.53;;
19816;SDS011;68323;49.394;8.434;2023-04-24T11:16:45;2.50;;;2.10;;
19816;SDS011;68323;49.394;8.434;2023-04-24T11:19:21;2.30;;;2.10;;
19816;SDS011;68323;49.394;8.434;2023-04-24T11:21:58;3.73;;;2.40;;
19816;SDS011;68323;49.394;8.434;2023-04-24T11:24:38;4.30;;;2.43;;
19816;SDS011;68323;49.394;8.434;2023-04-24T11:27:12;3.77;;;2.40;;
19816;SDS011;68323;49.394;8.434;2023-04-24T11:29:44;3.13;;;2.10;;
19816;SDS011;68323;49.394;8.434;2023-04-24T11:32:24;3.90;;;2.67;;
19816;SDS011;68323;49.394;8.434;2023-04-24T11:35:00;3.87;;;2.60;;
19816;SDS011;68323;49.394;8.434;2023-04-24T11:37:33;3.87;;;3.00;;
19816;SDS011;68323;49.394;8.434;2023-04-24T11:40:01;4.37;;;2.47;;
19816;SDS011;68323;49.394;8.434;2023-04-24T11:42:28;5.23;;;2.53;;
19816;SDS011;68323;49.394;8.434;2023-04-24T11:45:06;6.87;;;2.90;;
19816;SDS011;68323;49.394;8.434;2023-04-24T11:47:34;6.10;;;3.20;;
19816;SDS011;68323;49.394;8.434;2023-04-24T11:50:00;5.40;;;3.00;;
19816;SDS011;68323;49.394;8.434;2023-04-24T11:52:27;3.67;;;3.10;;
19816;SDS011;68323;49.394;8.434;2023-04-24T11:54:54;4.20;;;2.70;;
19816;SDS011;68323;49.394;8.434;2023-04-24T11:57:20;4.37;;;3.10;;
19816;SDS011;68323;49.394;8.434;2023-04-24T11:59:46;4.57;;;2.87;;
19816;SDS011;68323;49.394;8.434;2023-04-24T12:02:22;3.67;;;2.77;;
19816;SDS011;68323;49.394;8.434;2023-04-24T12:04:54;4.67;;;3.10;;
19816;SDS011;68323;49.394;8.434;2023-04-24T12:07:20;3.83;;;2.70;;
19816;SDS011;68323;49.394;8.434;2023-04-24T12:09:54;4.77;;;3.00;;
19816;SDS011;68323;49.394;8.434;2023-04-24T12:12:22;4.53;;;2.90;;
19816;SDS011;68323;49.394;8.434;2023-04-24T12:14:52;5.60;;;2.83;;
19816;SDS011;68323;49.394;8.434;2023-04-24T12:17:29;4.43;;;2.90;;
19816;SDS011;68323;49.394;8.434;2023-04-24T12:19:57;5.87;;;2.77;;
19816;SDS011;68323;49.394;8.434;2023-04-24T12:22:28;4.47;;;2.80;;
19816;SDS011;68323;49.394;8.434;2023-04-24T12:25:19;6.00;;;2.63;;
19816;SDS011;68323;49.394;8.434;2023-04-24T12:27:47;3.97;;;2.53;;
19816;SDS011;68323;49.394;8.434;2023-04-24T12:30:39;4.43;;;2.90;;
19816;SDS011;68323;49.394;8.434;2023-04-24T12:33:06;4.97;;;2.70;;
19816;SDS011;68323;49.394;8.434;2023-04-24T12:35:32;4.37;;;2.60;;
19816;SDS011;68323;49.394;8.434;2023-04-24T12:38:12;5.27;;;2.83;;
19816;SDS011;68323;49.394;8.434;2023-04-24T12:40:41;4.33;;;2.40;;
19816;SDS011;68323;49.394;8.434;2023-04-24T12:43:19;7.17;;;3.03;;
19816;SDS011;68323;49.394;8.434;2023-04-24T12:45:45;3.40;;;2.30;;
19816;SDS011;68323;49.394;8.434;2023-04-24T12:48:12;4.03;;;2.27;;
19816;SDS011;68323;49.394;8.434;2023-04-24T12:50:41;4.33;;;2.33;;
19816;SDS011;68323;49.394;8.434;2023-04-24T12:53:07;3.73;;;2.53;;
19816;SDS011;68323;49.394;8.434;2023-04-24T12:55:33;3.63;;;2.40;;
19816;SDS011;68323;49.394;8.434;2023-04-24T12:57:59;4.90;;;2.47;;
19816;SDS011;68323;49.394;8.434;2023-04-24T13:00:26;3.93;;;2.53;;
19816;SDS011;68323;49.394;8.434;2023-04-24T13:02:52;5.43;;;2.67;;
19816;SDS011;68323;49.394;8.434;2023-04-24T13:05:17;3.37;;;2.50;;
19816;SDS011;68323;49.394;8.434;2023-04-24T13:07:43;5.40;;;2.60;;
19816;SDS011;68323;49.394;8.434;2023-04-24T13:10:08;4.67;;;2.50;;
19816;SDS011;68323;49.394;8.434;2023-04-24T13:12:34;3.50;;;2.60;;
19816;SDS011;68323;49.394;8.434;2023-04-24T13:15:00;3.73;;;2.33;;
19816;SDS011;68323;49.394;8.434;2023-04-24T13:17:26;3.53;;;2.57;;
19816;SDS011;68323;49.394;8.434;2023-04-24T13:19:53;5.13;;;2.67;;
19816;SDS011;68323;49.394;8.434;2023-04-24T13:22:20;6.33;;;2.57;;
19816;SDS011;68323;49.394;8.434;2023-04-24T13:24:46;6.00;;;2.73;;
19816;SDS011;68323;49.394;8.434;2023-04-24T13:27:13;4.30;;;2.67;;
19816;SDS011;68323;49.394;8.434;2023-04-24T13:29:39;4.37;;;2.70;;
19816;SDS011;68323;49.394;8.434;2023-04-24T13:32:05;5.27;;;2.90;;
19816;SDS011;68323;49.394;8.434;2023-04-24T13:34:31;3.70;;;2.60;;
19816;SDS011;68323;49.394;8.434;2023-04-24T13:36:57;4.13;;;2.43;;
19816;SDS011;68323;49.394;8.434;2023-04-24T13:39:23;5.03;;;2.83;;
19816;SDS011;68323;49.394;8.434;2023-04-24T13:41:50;4.93;;;2.80;;
19816;SDS011;68323;49.394;8.434;2023-04-24T13:44:16;3.27;;;2.40;;
19816;SDS011;68323;49.394;8.434;2023-04-24T13:46:43;4.43;;;2.67;;
19816;SDS011;68323;49.394;8.434;2023-04-24T13:49:11;6.80;;;2.67;;
19816;SDS011;68323;49.394;8.434;2023-04-24T13:51:38;4.50;;;2.80;;
19816;SDS011;68323;49.394;8.434;2023-04-24T13:54:05;3.80;;;2.43;;
19816;SDS011;68323;49.394;8.434;2023-04-24T13:56:30;5.53;;;2.43;;
19816;SDS011;68323;49.394;8.434;2023-04-24T13:58:56;4.00;;;3.13;;
19816;SDS011;68323;49.394;8.434;2023-04-24T14:01:22;9.97;;;3.90;;
19816;SDS011;68323;49.394;8.434;2023-04-24T14:03:50;4.50;;;2.90;;
19816;SDS011;68323;49.394;8.434;2023-04-24T14:06:16;4.37;;;2.70;;
19816;SDS011;68323;49.394;8.434;2023-04-24T14:08:42;3.77;;;2.67;;
19816;SDS011;68323;49.394;8.434;2023-04-24T14:11:07;8.10;;;2.87;;
19816;SDS011;68323;49.394;8.434;2023-04-24T14:13:33;6.43;;;2.40;;
19816;SDS011;68323;49.394;8.434;2023-04-24T14:15:59;5.53;;;2.93;;
19816;SDS011;68323;49.394;8.434;2023-04-24T14:18:25;4.93;;;3.03;;
19816;SDS011;68323;49.394;8.434;2023-04-24T14:20:51;4.83;;;2.93;;
19816;SDS011;68323;49.394;8.434;2023-04-24T14:23:17;5.63;;;2.20;;
19816;SDS011;68323;49.394;8.434;2023-04-24T14:25:43;3.97;;;2.50;;
19816;SDS011;68323;49.394;8.434;2023-04-24T14:28:09;4.40;;;2.77;;
19816;SDS011;68323;49.394;8.434;2023-04-24T14:30:35;6.07;;;2.90;;
19816;SDS011;68323;49.394;8.434;2023-04-24T14:33:02;5.13;;;3.30;;
19816;SDS011;68323;49.394;8.434;2023-04-24T14:35:29;5.23;;;2.70;;
19816;SDS011;68323;49.394;8.434;2023-04-24T14:37:56;5.63;;;2.77;;
19816;SDS011;68323;49.394;8.434;2023-04-24T14:40:21;7.47;;;2.63;;
19816;SDS011;68323;49.394;8.434;2023-04-24T14:42:47;7.00;;;2.70;;
19816;SDS011;68323;49.394;8.434;2023-04-24T14:45:13;3.57;;;2.30;;
19816;SDS011;68323;49.394;8.434;2023-04-24T14:47:38;4.73;;;2.53;;